sensor_id;sensor_type;location;lat;lon;timestamp;pressure;altitude;pressure_sealevel;temperature;humidity
78210;BME280;67485;48.816;9.930;2023-10-19T00:02:05;95344.72;;;10.79;91.27
78210;BME280;67485;48.816;9.930;2023-10-19T00:04:32;95351.16;;;10.73;92.53
78210;BME280;67485;48.816;9.930;2023-10-19T00:07:02;95353.50;;;10.78;92.12
78210;BME280;67485;48.816;9.930;2023-10-19T00:09:30;95357.09;;;10.77;90.47
78210;BME280;67485;48.816;9.930;2023-10-19T00:12:05;95366.69;;;10.76;90.75
78210;BME280;67485;48.816;9.930;2023-10-19T00:14:34;95355.38;;;10.76;90.61
78210;BME280;67485;48.816;9.930;2023-10-19T00:17:00;95350.38;;;10.71;92.21
78210;BME280;67485;48.816;9.930;2023-10-19T00:19:34;95351.47;;;10.67;93.29
78210;BME280;67485;48.816;9.930;2023-10-19T00:22:08;95337.56;;;10.65;93.47
78210;BME280;67485;48.816;9.930;2023-10-19T00:24:36;95336.56;;;10.67;93.36
78210;BME280;67485;48.816;9.930;2023-10-19T00:27:02;95340.66;;;10.73;93.01
78210;BME280;67485;48.816;9.930;2023-10-19T00:29:42;95322.72;;;10.65;94.30
78210;BME280;67485;48.816;9.930;2023-10-19T00:32:15;95325.72;;;10.58;95.90
78210;BME280;67485;48.816;9.930;2023-10-19T00:34:41;95326.72;;;10.55;95.50
78210;BME280;67485;48.816;9.930;2023-10-19T00:37:15;95333.34;;;10.45;96.21
78210;BME280;67485;48.816;9.930;2023-10-19T00:39:46;95323.53;;;10.31;96.71
78210;BME280;67485;48.816;9.930;2023-10-19T00:42:22;95321.28;;;10.23;97.40
78210;BME280;67485;48.816;9.930;2023-10-19T00:44:56;95326.56;;;10.21;98.05
78210;BME280;67485;48.816;9.930;2023-10-19T00:47:29;95326.66;;;10.20;98.79
78210;BME280;67485;48.816;9.930;2023-10-19T00:50:06;95323.97;;;10.21;98.73
78210;BME280;67485;48.816;9.930;2023-10-19T00:52:40;95315.06;;;10.26;99.13
78210;BME280;67485;48.816;9.930;2023-10-19T00:55:13;95315.88;;;10.26;99.77
78210;BME280;67485;48.816;9.930;2023-10-19T00:57:40;95320.00;;;10.32;99.19
78210;BME280;67485;48.816;9.930;2023-10-19T01:00:08;95316.59;;;10.30;100.00
78210;BME280;67485;48.816;9.930;2023-10-19T01:02:39;95310.53;;;10.29;100.00
78210;BME280;67485;48.816;9.930;2023-10-19T01:05:10;95306.13;;;10.30;100.00
78210;BME280;67485;48.816;9.930;2023-10-19T01:07:39;95310.34;;;10.32;100.00
78210;BME280;67485;48.816;9.930;2023-10-19T01:10:07;95320.69;;;10.35;100.00
78210;BME280;67485;48.816;9.930;2023-10-19T01:12:33;95324.31;;;10.33;100.00
78210;BME280;67485;48.816;9.930;2023-10-19T01:17:37;95319.72;;;10.38;100.00
78210;BME280;67485;48.816;9.930;2023-10-19T01:22:56;95308.84;;;10.46;100.00
78210;BME280;67485;48.816;9.930;2023-10-19T01:25:50;95295.69;;;10.47;100.00
78210;BME280;67485;48.816;9.930;2023-10-19T01:28:20;95290.66;;;10.43;100.00
78210;BME280;67485;48.816;9.930;2023-10-19T01:30:50;95287.44;;;10.37;100.00
78210;BME280;67485;48.816;9.930;2023-10-19T01:33:18;95276.97;;;10.37;100.00
78210;BME280;67485;48.816;9.930;2023-10-19T01:35:44;95273.94;;;10.45;100.00
78210;BME280;67485;48.816;9.930;2023-10-19T01:38:30;95264.25;;;10.47;100.00
78210;BME280;67485;48.816;9.930;2023-10-19T01:41:00;95265.16;;;10.46;100.00
78210;BME280;67485;48.816;9.930;2023-10-19T01:43:27;95270.25;;;10.49;100.00
78210;BME280;67485;48.816;9.930;2023-10-19T01:46:00;95276.50;;;10.47;100.00
78210;BME280;67485;48.816;9.930;2023-10-19T01:48:42;95271.31;;;10.45;100.00
78210;BME280;67485;48.816;9.930;2023-10-19T01:51:10;95274.25;;;10.39;100.00
78210;BME280;67485;48.816;9.930;2023-10-19T01:53:37;95270.94;;;10.35;100.00
78210;BME280;67485;48.816;9.930;2023-10-19T01:56:09;95269.31;;;10.33;100.00
78210;BME280;67485;48.816;9.930;2023-10-19T01:58:36;95269.19;;;10.36;100.00
78210;BME280;67485;48.816;9.930;2023-10-19T02:01:03;95256.78;;;10.40;100.00
78210;BME280;67485;48.816;9.930;2023-10-19T02:03:45;95263.66;;;10.42;100.00
78210;BME280;67485;48.816;9.930;2023-10-19T02:06:13;95260.09;;;10.43;100.00
78210;BME280;67485;48.816;9.930;2023-10-19T02:08:52;95256.56;;;10.44;100.00
78210;BME280;67485;48.816;9.930;2023-10-19T02:11:22;95252.69;;;10.51;100.00
78210;BME280;67485;48.816;9.930;2023-10-19T02:13:52;95248.22;;;10.53;100.00
78210;BME280;67485;48.816;9.930;2023-10-19T02:16:18;95221.13;;;10.54;100.00
78210;BME280;67485;48.816;9.930;2023-10-19T02:19:02;95211.56;;;10.53;100.00
78210;BME280;67485;48.816;9.930;2023-10-19T02:21:28;95197.69;;;10.51;100.00
78210;BME280;67485;48.816;9.930;2023-10-19T02:23:57;95210.72;;;10.53;100.00
78210;BME280;67485;48.816;9.930;2023-10-19T02:26:24;95204.03;;;10.47;100.00
78210;BME280;67485;48.816;9.930;2023-10-19T02:28:53;95199.97;;;10.42;100.00
78210;BME280;67485;48.816;9.930;2023-10-19T02:31:19;95197.41;;;10.40;100.00
78210;BME280;67485;48.816;9.930;2023-10-19T02:33:48;95183.56;;;10.38;100.00
78210;BME280;67485;48.816;9.930;2023-10-19T02:36:27;95191.25;;;10.41;100.00
78210;BME280;67485;48.816;9.930;2023-10-19T02:38:58;95196.25;;;10.46;100.00
78210;BME280;67485;48.816;9.930;2023-10-19T02:41:25;95182.28;;;10.45;100.00
78210;BME280;67485;48.816;9.930;2023-10-19T02:43:55;95191.00;;;10.46;100.00
78210;BME280;67485;48.816;9.930;2023-10-19T02:46:34;95174.13;;;10.51;100.00
78210;BME280;67485;48.816;9.930;2023-10-19T02:49:04;95175.72;;;10.54;100.00
78210;BME280;67485;48.816;9.930;2023-10-19T02:51:42;95165.94;;;10.58;100.00
78210;BME280;67485;48.816;9.930;2023-10-19T02:54:10;95172.28;;;10.53;100.00
78210;BME280;67485;48.816;9.930;2023-10-19T02:56:44;95171.50;;;10.51;100.00
78210;BME280;67485;48.816;9.930;2023-10-19T02:59:15;95172.44;;;10.50;100.00
78210;BME280;67485;48.816;9.930;2023-10-19T03:01:42;95162.13;;;10.47;100.00
78210;BME280;67485;48.816;9.930;2023-10-19T03:04:11;95167.34;;;10.47;100.00
78210;BME280;67485;48.816;9.930;2023-10-19T03:06:40;95161.19;;;10.48;100.00
78210;BME280;67485;48.816;9.930;2023-10-19T03:09:07;95159.28;;;10.52;100.00
78210;BME280;67485;48.816;9.930;2023-10-19T03:11:42;95157.56;;;10.51;100.00
78210;BME280;67485;48.816;9.930;2023-10-19T03:14:08;95151.66;;;10.47;100.00
78210;BME280;67485;48.816;9.930;2023-10-19T03:16:38;95155.72;;;10.53;100.00
78210;BME280;67485;48.816;9.930;2023-10-19T03:19:07;95149.31;;;10.59;100.00
78210;BME280;67485;48.816;9.930;2023-10-19T03:21:33;95151.19;;;10.57;100.00
78210;BME280;67485;48.816;9.930;2023-10-19T03:24:10;95159.78;;;10.59;100.00
78210;BME280;67485;48.816;9.930;2023-10-19T03:26:49;95156.25;;;10.60;100.00
78210;BME280;67485;48.816;9.930;2023-10-19T03:29:16;95149.31;;;10.59;100.00
78210;BME280;67485;48.816;9.930;2023-10-19T03:31:45;95147.59;;;10.58;100.00
78210;BME280;67485;48.816;9.930;2023-10-19T03:34:12;95149.47;;;10.56;100.00
78210;BME280;67485;48.816;9.930;2023-10-19T03:36:39;95141.63;;;10.56;100.00
78210;BME280;67485;48.816;9.930;2023-10-19T03:39:05;95145.41;;;10.50;100.00
78210;BME280;67485;48.816;9.930;2023-10-19T03:41:41;95137.44;;;10.51;100.00
78210;BME280;67485;48.816;9.930;2023-10-19T03:44:10;95140.16;;;10.50;100.00
78210;BME280;67485;48.816;9.930;2023-10-19T03:46:45;95129.69;;;10.50;100.00
78210;BME280;67485;48.816;9.930;2023-10-19T03:49:21;95130.88;;;10.44;100.00
78210;BME280;67485;48.816;9.930;2023-10-19T03:51:47;95124.09;;;10.40;100.00
78210;BME280;67485;48.816;9.930;2023-10-19T03:54:28;95127.81;;;10.36;100.00
78210;BME280;67485;48.816;9.930;2023-10-19T03:56:54;95129.63;;;10.34;100.00
78210;BME280;67485;48.816;9.930;2023-10-19T03:59:27;95128.09;;;10.30;100.00
78210;BME280;67485;48.816;9.930;2023-10-19T04:01:59;95127.50;;;10.25;100.00
78210;BME280;67485;48.816;9.930;2023-10-19T04:04:26;95125.72;;;10.25;100.00
78210;BME280;67485;48.816;9.930;2023-10-19T04:06:55;95119.97;;;10.18;100.00
78210;BME280;67485;48.816;9.930;2023-10-19T04:09:26;95125.03;;;10.21;100.00
78210;BME280;67485;48.816;9.930;2023-10-19T04:11:58;95118.94;;;10.21;100.00
78210;BME280;67485;48.816;9.930;2023-10-19T04:14:23;95117.81;;;10.27;100.00
78210;BME280;67485;48.816;9.930;2023-10-19T04:16:49;95122.50;;;10.20;100.00
78210;BME280;67485;48.816;9.930;2023-10-19T04:19:15;95117.03;;;10.25;100.00
78210;BME280;67485;48.816;9.930;2023-10-19T04:21:42;95112.09;;;10.18;100.00
78210;BME280;67485;48.816;9.930;2023-10-19T04:24:13;95102.88;;;10.11;100.00
78210;BME280;67485;48.816;9.930;2023-10-19T04:26:39;95101.28;;;10.09;100.00
78210;BME280;67485;48.816;9.930;2023-10-19T04:29:06;95104.59;;;9.95;100.00
78210;BME280;67485;48.816;9.930;2023-10-19T04:31:42;95107.22;;;9.95;100.00
78210;BME280;67485;48.816;9.930;2023-10-19T04:34:16;95111.75;;;9.91;100.00
78210;BME280;67485;48.816;9.930;2023-10-19T04:36:46;95101.38;;;9.89;100.00
78210;BME280;67485;48.816;9.930;2023-10-19T04:39:12;95099.84;;;9.85;100.00
78210;BME280;67485;48.816;9.930;2023-10-19T04:41:39;95088.78;;;9.80;100.00
78210;BME280;67485;48.816;9.930;2023-10-19T04:44:06;95090.63;;;9.78;100.00
78210;BME280;67485;48.816;9.930;2023-10-19T04:46:34;95087.72;;;9.67;100.00
78210;BME280;67485;48.816;9.930;2023-10-19T04:49:00;95083.47;;;9.64;100.00
78210;BME280;67485;48.816;9.930;2023-10-19T04:51:25;95080.78;;;9.66;100.00
78210;BME280;67485;48.816;9.930;2023-10-19T04:53:51;95077.56;;;9.61;100.00
78210;BME280;67485;48.816;9.930;2023-10-19T04:56:17;95082.19;;;9.55;100.00
78210;BME280;67485;48.816;9.930;2023-10-19T04:58:42;95076.47;;;9.47;100.00
78210;BME280;67485;48.816;9.930;2023-10-19T05:01:08;95078.47;;;9.42;100.00
78210;BME280;67485;48.816;9.930;2023-10-19T05:03:37;95070.63;;;9.42;100.00
78210;BME280;67485;48.816;9.930;2023-10-19T05:06:03;95075.25;;;9.37;100.00
78210;BME280;67485;48.816;9.930;2023-10-19T05:08:29;95066.56;;;9.36;100.00
78210;BME280;67485;48.816;9.930;2023-10-19T05:10:55;95061.25;;;9.38;100.00
78210;BME280;67485;48.816;9.930;2023-10-19T05:13:25;95065.09;;;9.31;100.00
78210;BME280;67485;48.816;9.930;2023-10-19T05:15:54;95066.94;;;9.29;100.00
78210;BME280;67485;48.816;9.930;2023-10-19T05:18:22;95067.03;;;9.27;100.00
78210;BME280;67485;48.816;9.930;2023-10-19T05:20:48;95066.25;;;9.25;100.00
78210;BME280;67485;48.816;9.930;2023-10-19T05:23:13;95054.78;;;9.28;100.00
78210;BME280;67485;48.816;9.930;2023-10-19T05:25:39;95064.50;;;9.25;100.00
78210;BME280;67485;48.816;9.930;2023-10-19T05:28:05;95063.72;;;9.23;100.00
78210;BME280;67485;48.816;9.930;2023-10-19T05:30:35;95066.41;;;9.22;100.00
78210;BME280;67485;48.816;9.930;2023-10-19T05:33:01;95058.47;;;9.23;100.00
78210;BME280;67485;48.816;9.930;2023-10-19T05:35:29;95067.09;;;9.25;100.00
78210;BME280;67485;48.816;9.930;2023-10-19T05:37:56;95064.50;;;9.25;100.00
78210;BME280;67485;48.816;9.930;2023-10-19T05:40:24;95069.94;;;9.21;100.00
78210;BME280;67485;48.816;9.930;2023-10-19T05:42:57;95072.47;;;9.22;100.00
78210;BME280;67485;48.816;9.930;2023-10-19T05:45:24;95080.00;;;9.29;100.00
78210;BME280;67485;48.816;9.930;2023-10-19T05:47:50;95074.88;;;9.27;100.00
78210;BME280;67485;48.816;9.930;2023-10-19T05:50:15;95080.91;;;9.28;100.00
78210;BME280;67485;48.816;9.930;2023-10-19T05:52:42;95076.63;;;9.27;100.00
78210;BME280;67485;48.816;9.930;2023-10-19T05:55:11;95082.47;;;9.32;100.00
78210;BME280;67485;48.816;9.930;2023-10-19T05:57:37;95084.72;;;9.39;100.00
78210;BME280;67485;48.816;9.930;2023-10-19T06:00:08;95092.16;;;9.47;100.00
78210;BME280;67485;48.816;9.930;2023-10-19T06:02:43;95092.03;;;9.50;100.00
78210;BME280;67485;48.816;9.930;2023-10-19T06:05:15;95086.53;;;9.55;100.00
78210;BME280;67485;48.816;9.930;2023-10-19T06:07:46;95086.53;;;9.55;100.00
78210;BME280;67485;48.816;9.930;2023-10-19T06:10:20;95094.94;;;9.62;100.00
78210;BME280;67485;48.816;9.930;2023-10-19T06:12:47;95102.53;;;9.66;100.00
78210;BME280;67485;48.816;9.930;2023-10-19T06:15:14;95101.72;;;9.66;100.00
78210;BME280;67485;48.816;9.930;2023-10-19T06:17:41;95109.25;;;9.72;100.00
78210;BME280;67485;48.816;9.930;2023-10-19T06:20:08;95104.78;;;9.74;100.00
78210;BME280;67485;48.816;9.930;2023-10-19T06:22:35;95105.53;;;9.76;100.00
78210;BME280;67485;48.816;9.930;2023-10-19T06:25:02;95099.38;;;9.77;100.00
78210;BME280;67485;48.816;9.930;2023-10-19T06:27:30;95093.47;;;9.73;100.00
78210;BME280;67485;48.816;9.930;2023-10-19T06:29:57;95098.69;;;9.73;100.00
78210;BME280;67485;48.816;9.930;2023-10-19T06:32:22;95105.31;;;9.81;100.00
78210;BME280;67485;48.816;9.930;2023-10-19T06:34:48;95109.06;;;9.93;100.00
78210;BME280;67485;48.816;9.930;2023-10-19T06:37:14;95095.97;;;9.93;100.00
78210;BME280;67485;48.816;9.930;2023-10-19T06:39:40;95095.13;;;10.10;100.00
78210;BME280;67485;48.816;9.930;2023-10-19T06:42:08;95092.41;;;10.11;100.00
78210;BME280;67485;48.816;9.930;2023-10-19T06:44:40;95096.63;;;10.14;100.00
78210;BME280;67485;48.816;9.930;2023-10-19T06:47:07;95090.84;;;10.25;100.00
78210;BME280;67485;48.816;9.930;2023-10-19T06:49:33;95089.00;;;10.27;100.00
78210;BME280;67485;48.816;9.930;2023-10-19T06:52:00;95089.06;;;10.25;100.00
78210;BME280;67485;48.816;9.930;2023-10-19T06:54:25;95087.72;;;10.34;100.00
78210;BME280;67485;48.816;9.930;2023-10-19T06:56:53;95094.38;;;10.23;100.00
78210;BME280;67485;48.816;9.930;2023-10-19T06:59:19;95096.09;;;10.25;100.00
78210;BME280;67485;48.816;9.930;2023-10-19T07:01:44;95096.38;;;10.36;100.00
78210;BME280;67485;48.816;9.930;2023-10-19T07:04:12;95089.13;;;10.41;100.00
78210;BME280;67485;48.816;9.930;2023-10-19T07:06:39;95086.09;;;10.49;100.00
78210;BME280;67485;48.816;9.930;2023-10-19T07:09:05;95080.16;;;10.45;100.00
78210;BME280;67485;48.816;9.930;2023-10-19T07:11:31;95082.03;;;10.43;100.00
78210;BME280;67485;48.816;9.930;2023-10-19T07:13:59;95074.53;;;10.53;100.00
78210;BME280;67485;48.816;9.930;2023-10-19T07:16:25;95075.97;;;10.59;100.00
78210;BME280;67485;48.816;9.930;2023-10-19T07:18:52;95080.03;;;10.64;100.00
78210;BME280;67485;48.816;9.930;2023-10-19T07:21:19;95073.13;;;10.79;100.00
78210;BME280;67485;48.816;9.930;2023-10-19T07:23:46;95079.84;;;10.83;100.00
78210;BME280;67485;48.816;9.930;2023-10-19T07:26:14;95082.28;;;10.86;100.00
78210;BME280;67485;48.816;9.930;2023-10-19T07:28:40;95084.75;;;10.90;100.00
78210;BME280;67485;48.816;9.930;2023-10-19T07:31:07;95073.16;;;10.94;100.00
78210;BME280;67485;48.816;9.930;2023-10-19T07:33:38;95071.72;;;11.04;100.00
78210;BME280;67485;48.816;9.930;2023-10-19T07:36:12;95072.91;;;11.14;100.00
78210;BME280;67485;48.816;9.930;2023-10-19T07:38:40;95071.59;;;11.22;100.00
78210;BME280;67485;48.816;9.930;2023-10-19T07:41:08;95081.34;;;11.19;100.00
78210;BME280;67485;48.816;9.930;2023-10-19T07:43:35;95087.44;;;11.20;100.00
78210;BME280;67485;48.816;9.930;2023-10-19T07:46:01;95085.44;;;11.09;100.00
78210;BME280;67485;48.816;9.930;2023-10-19T07:48:26;95082.97;;;11.06;100.00
78210;BME280;67485;48.816;9.930;2023-10-19T07:50:52;95078.41;;;11.10;100.00
78210;BME280;67485;48.816;9.930;2023-10-19T07:53:19;95090.31;;;11.15;100.00
78210;BME280;67485;48.816;9.930;2023-10-19T07:55:44;95085.22;;;11.28;100.00
78210;BME280;67485;48.816;9.930;2023-10-19T07:58:10;95086.56;;;11.35;100.00
78210;BME280;67485;48.816;9.930;2023-10-19T08:00:36;95074.19;;;11.38;100.00
78210;BME280;67485;48.816;9.930;2023-10-19T08:03:03;95067.75;;;11.43;100.00
78210;BME280;67485;48.816;9.930;2023-10-19T08:05:29;95084.59;;;11.39;100.00
78210;BME280;67485;48.816;9.930;2023-10-19T08:07:55;95086.28;;;11.40;100.00
78210;BME280;67485;48.816;9.930;2023-10-19T08:10:22;95084.00;;;11.34;100.00
78210;BME280;67485;48.816;9.930;2023-10-19T08:12:48;95064.91;;;11.32;100.00
78210;BME280;67485;48.816;9.930;2023-10-19T08:15:15;95029.97;;;11.31;100.00
78210;BME280;67485;48.816;9.930;2023-10-19T08:17:43;95046.63;;;11.30;100.00
78210;BME280;67485;48.816;9.930;2023-10-19T08:20:10;95047.13;;;11.37;100.00
78210;BME280;67485;48.816;9.930;2023-10-19T08:22:44;95031.88;;;11.44;100.00
78210;BME280;67485;48.816;9.930;2023-10-19T08:25:12;95037.44;;;11.54;100.00
78210;BME280;67485;48.816;9.930;2023-10-19T08:27:43;95048.69;;;11.56;100.00
78210;BME280;67485;48.816;9.930;2023-10-19T08:30:18;95050.59;;;11.68;100.00
78210;BME280;67485;48.816;9.930;2023-10-19T08:32:44;95055.94;;;11.81;100.00
78210;BME280;67485;48.816;9.930;2023-10-19T08:35:21;95049.31;;;11.90;100.00
78210;BME280;67485;48.816;9.930;2023-10-19T08:37:51;95046.13;;;11.99;100.00
78210;BME280;67485;48.816;9.930;2023-10-19T08:40:19;95043.25;;;12.04;100.00
78210;BME280;67485;48.816;9.930;2023-10-19T08:42:46;95052.63;;;12.08;100.00
78210;BME280;67485;48.816;9.930;2023-10-19T08:45:12;95047.25;;;12.09;100.00
78210;BME280;67485;48.816;9.930;2023-10-19T08:47:55;95051.41;;;12.13;100.00
78210;BME280;67485;48.816;9.930;2023-10-19T08:50:25;95057.22;;;12.19;100.00
78210;BME280;67485;48.816;9.930;2023-10-19T08:52:53;95045.19;;;12.29;100.00
78210;BME280;67485;48.816;9.930;2023-10-19T08:55:19;95039.41;;;12.38;100.00
78210;BME280;67485;48.816;9.930;2023-10-19T08:57:47;95042.00;;;12.53;100.00
78210;BME280;67485;48.816;9.930;2023-10-19T09:04:25;95043.81;;;12.79;100.00
78210;BME280;67485;48.816;9.930;2023-10-19T09:06:53;95037.84;;;12.90;100.00
78210;BME280;67485;48.816;9.930;2023-10-19T09:09:20;95033.06;;;12.97;100.00
78210;BME280;67485;48.816;9.930;2023-10-19T09:11:49;95032.31;;;12.95;100.00
78210;BME280;67485;48.816;9.930;2023-10-19T09:14:15;95036.13;;;13.04;100.00
78210;BME280;67485;48.816;9.930;2023-10-19T09:16:56;95024.34;;;13.09;100.00
78210;BME280;67485;48.816;9.930;2023-10-19T09:19:39;95032.19;;;13.24;100.00
78210;BME280;67485;48.816;9.930;2023-10-19T09:22:05;95031.25;;;13.52;100.00
78210;BME280;67485;48.816;9.930;2023-10-19T09:24:35;95030.13;;;13.82;100.00
78210;BME280;67485;48.816;9.930;2023-10-19T09:27:03;95024.97;;;14.06;98.45
78210;BME280;67485;48.816;9.930;2023-10-19T09:29:29;95013.78;;;14.16;97.21
78210;BME280;67485;48.816;9.930;2023-10-19T09:31:58;95020.69;;;14.30;96.16
78210;BME280;67485;48.816;9.930;2023-10-19T09:34:29;95014.13;;;14.48;95.33
78210;BME280;67485;48.816;9.930;2023-10-19T09:44:21;95009.94;;;16.02;85.03
78210;BME280;67485;48.816;9.930;2023-10-19T09:46:50;95010.63;;;16.50;83.71
78210;BME280;67485;48.816;9.930;2023-10-19T09:49:19;95004.16;;;16.43;82.15
78210;BME280;67485;48.816;9.930;2023-10-19T09:51:45;94999.28;;;16.82;80.60
78210;BME280;67485;48.816;9.930;2023-10-19T09:54:22;95002.53;;;17.29;78.57
78210;BME280;67485;48.816;9.930;2023-10-19T09:56:58;94996.38;;;17.29;77.14
78210;BME280;67485;48.816;9.930;2023-10-19T09:59:37;94992.84;;;16.63;78.19
78210;BME280;67485;48.816;9.930;2023-10-19T10:02:14;94997.31;;;16.51;80.99
78210;BME280;67485;48.816;9.930;2023-10-19T10:04:41;94995.50;;;16.41;81.64
78210;BME280;67485;48.816;9.930;2023-10-19T10:07:09;94992.63;;;16.10;83.58
78210;BME280;67485;48.816;9.930;2023-10-19T10:09:39;94998.63;;;15.89;86.55
78210;BME280;67485;48.816;9.930;2023-10-19T10:14:54;94989.69;;;15.79;87.65
78210;BME280;67485;48.816;9.930;2023-10-19T10:17:21;94994.22;;;15.65;87.31
78210;BME280;67485;48.816;9.930;2023-10-19T10:19:48;94995.66;;;15.69;87.41
78210;BME280;67485;48.816;9.930;2023-10-19T10:22:14;94992.53;;;15.64;86.73
78210;BME280;67485;48.816;9.930;2023-10-19T10:24:43;94984.59;;;15.53;87.88
78210;BME280;67485;48.816;9.930;2023-10-19T10:27:09;94987.72;;;15.58;88.66
78210;BME280;67485;48.816;9.930;2023-10-19T10:29:58;94982.81;;;15.65;89.81
78210;BME280;67485;48.816;9.930;2023-10-19T10:32:47;94973.50;;;15.83;89.17
78210;BME280;67485;48.816;9.930;2023-10-19T10:38:08;94973.63;;;15.82;89.16
78210;BME280;67485;48.816;9.930;2023-10-19T10:40:43;94973.00;;;15.78;87.08
78210;BME280;67485;48.816;9.930;2023-10-19T10:43:09;94969.25;;;15.69;86.96
78210;BME280;67485;48.816;9.930;2023-10-19T10:45:36;94965.78;;;15.69;87.24
78210;BME280;67485;48.816;9.930;2023-10-19T10:48:02;94967.34;;;15.71;87.59
78210;BME280;67485;48.816;9.930;2023-10-19T10:50:29;94958.09;;;15.66;88.55
78210;BME280;67485;48.816;9.930;2023-10-19T10:52:55;94962.69;;;15.75;88.27
78210;BME280;67485;48.816;9.930;2023-10-19T10:55:23;94962.56;;;15.77;88.28
78210;BME280;67485;48.816;9.930;2023-10-19T10:57:50;94957.06;;;15.91;88.85
78210;BME280;67485;48.816;9.930;2023-10-19T11:00:17;94952.88;;;16.00;90.63
78210;BME280;67485;48.816;9.930;2023-10-19T11:02:45;94947.94;;;16.18;89.36
78210;BME280;67485;48.816;9.930;2023-10-19T11:05:13;94945.53;;;16.37;87.84
78210;BME280;67485;48.816;9.930;2023-10-19T11:10:47;94942.63;;;16.41;87.50
78210;BME280;67485;48.816;9.930;2023-10-19T11:13:17;94944.56;;;16.27;87.75
78210;BME280;67485;48.816;9.930;2023-10-19T11:15:54;94937.38;;;16.18;87.99
78210;BME280;67485;48.816;9.930;2023-10-19T11:21:02;94933.03;;;16.28;86.16
78210;BME280;67485;48.816;9.930;2023-10-19T11:23:46;94936.66;;;16.16;86.04
78210;BME280;67485;48.816;9.930;2023-10-19T11:26:15;94939.56;;;16.13;86.88
78210;BME280;67485;48.816;9.930;2023-10-19T11:28:41;94941.25;;;16.14;85.90
78210;BME280;67485;48.816;9.930;2023-10-19T11:31:19;94942.69;;;16.07;86.54
78210;BME280;67485;48.816;9.930;2023-10-19T11:33:48;94938.00;;;15.99;86.08
78210;BME280;67485;48.816;9.930;2023-10-19T11:36:15;94940.03;;;16.07;87.18
78210;BME280;67485;48.816;9.930;2023-10-19T11:38:42;94945.31;;;16.07;86.41
78210;BME280;67485;48.816;9.930;2023-10-19T11:41:09;94954.19;;;16.05;87.08
78210;BME280;67485;48.816;9.930;2023-10-19T11:43:36;94953.25;;;15.95;88.36
78210;BME280;67485;48.816;9.930;2023-10-19T11:46:02;94954.94;;;15.96;88.56
78210;BME280;67485;48.816;9.930;2023-10-19T11:48:33;94956.00;;;15.94;88.26
78210;BME280;67485;48.816;9.930;2023-10-19T11:51:00;94955.16;;;15.93;89.22
78210;BME280;67485;48.816;9.930;2023-10-19T11:53:34;94956.72;;;15.84;90.73
78210;BME280;67485;48.816;9.930;2023-10-19T11:56:05;94950.16;;;15.66;92.75
78210;BME280;67485;48.816;9.930;2023-10-19T11:58:32;94956.03;;;15.58;94.01
78210;BME280;67485;48.816;9.930;2023-10-19T12:01:03;94959.50;;;15.47;95.08
78210;BME280;67485;48.816;9.930;2023-10-19T12:03:32;94958.28;;;15.40;96.30
78210;BME280;67485;48.816;9.930;2023-10-19T12:06:00;94960.94;;;15.40;96.74
78210;BME280;67485;48.816;9.930;2023-10-19T12:08:29;94961.63;;;15.42;98.00
78210;BME280;67485;48.816;9.930;2023-10-19T12:10:55;94958.91;;;15.44;98.70
78210;BME280;67485;48.816;9.930;2023-10-19T12:13:20;94948.34;;;15.44;98.65
78210;BME280;67485;48.816;9.930;2023-10-19T12:15:46;94947.13;;;15.36;99.60
78210;BME280;67485;48.816;9.930;2023-10-19T12:18:18;94951.78;;;15.33;100.00
78210;BME280;67485;48.816;9.930;2023-10-19T12:20:44;94948.28;;;15.32;100.00
78210;BME280;67485;48.816;9.930;2023-10-19T12:23:11;94952.97;;;15.29;100.00
78210;BME280;67485;48.816;9.930;2023-10-19T12:25:37;94953.81;;;15.29;100.00
78210;BME280;67485;48.816;9.930;2023-10-19T12:28:04;94944.94;;;15.30;100.00
78210;BME280;67485;48.816;9.930;2023-10-19T12:30:30;94942.53;;;15.27;100.00
78210;BME280;67485;48.816;9.930;2023-10-19T12:33:04;94942.78;;;15.24;100.00
78210;BME280;67485;48.816;9.930;2023-10-19T12:35:40;94940.00;;;15.26;100.00
78210;BME280;67485;48.816;9.930;2023-10-19T12:38:18;94942.06;;;15.33;100.00
78210;BME280;67485;48.816;9.930;2023-10-19T12:40:47;94943.75;;;15.34;100.00
78210;BME280;67485;48.816;9.930;2023-10-19T12:43:14;94944.50;;;15.36;100.00
78210;BME280;67485;48.816;9.930;2023-10-19T12:45:40;94948.34;;;15.44;100.00
78210;BME280;67485;48.816;9.930;2023-10-19T12:48:07;94951.22;;;15.52;100.00
78210;BME280;67485;48.816;9.930;2023-10-19T12:50:37;94952.66;;;15.56;100.00
78210;BME280;67485;48.816;9.930;2023-10-19T12:53:03;94950.28;;;15.64;100.00
78210;BME280;67485;48.816;9.930;2023-10-19T12:55:29;94954.13;;;15.60;100.00
78210;BME280;67485;48.816;9.930;2023-10-19T12:57:57;94958.47;;;15.61;100.00
78210;BME280;67485;48.816;9.930;2023-10-19T13:00:23;94953.66;;;15.66;100.00
78210;BME280;67485;48.816;9.930;2023-10-19T13:02:49;94953.53;;;15.68;100.00
78210;BME280;67485;48.816;9.930;2023-10-19T13:05:16;94958.34;;;15.63;100.00
78210;BME280;67485;48.816;9.930;2023-10-19T13:07:44;94956.03;;;15.58;100.00
78210;BME280;67485;48.816;9.930;2023-10-19T13:10:10;94943.09;;;15.55;100.00
78210;BME280;67485;48.816;9.930;2023-10-19T13:12:37;94949.78;;;15.48;100.00
78210;BME280;67485;48.816;9.930;2023-10-19T13:15:04;94941.38;;;15.43;100.00
78210;BME280;67485;48.816;9.930;2023-10-19T13:17:40;94933.22;;;15.46;100.00
78210;BME280;67485;48.816;9.930;2023-10-19T13:20:08;94933.69;;;15.51;100.00
78210;BME280;67485;48.816;9.930;2023-10-19T13:22:44;94936.94;;;15.54;100.00
78210;BME280;67485;48.816;9.930;2023-10-19T13:25:11;94927.34;;;15.53;100.00
78210;BME280;67485;48.816;9.930;2023-10-19T13:27:46;94931.19;;;15.49;100.00
78210;BME280;67485;48.816;9.930;2023-10-19T13:30:12;94915.69;;;15.45;100.00
78210;BME280;67485;48.816;9.930;2023-10-19T13:32:39;94909.72;;;15.43;100.00
78210;BME280;67485;48.816;9.930;2023-10-19T13:35:04;94906.59;;;15.37;100.00